• Join FlightAware (Why Join?)
  • Login
  • US Flag 
10:13AM EDT


 

Airport Tracker/Info


-or-


 

Live Flight TrackerFlight Track Log ✈ AAL1326 ✈ 04-May-2013 ✈ KMCI - KORD

Flight Track Log - Related Links

Times and Time Zones

All times are in EDT time to prevent confusion due to time zone crossing. See the AAL1326 flight status page for this flight to view local times or setup timezone preferences in your user account.

Time Position Orientation Groundspeed Altitude Reporting Facility
EDT Latitude Longitude Course Direction KTS MPH feet Rate Location/Type
05:28PM 39.3167 -94.7000 45° Northeast 159 183 1,700  Level Kansas City TRACON
05:30PM 39.3661 -94.6536 36° Northeast 195 224 3,900 2,040 Climbing Kansas City Center
05:31PM 39.4528 -94.5095 41° Northeast  Level FlightAware Approximate
05:31PM 39.4111 -94.5964 44° Northeast 235 270 6,500  Level Kansas City Center
05:32PM 39.5206 -94.4332 41° Northeast  Level FlightAware Approximate
05:32PM 39.4678 -94.5258 44° Northeast 251 289 10,200  Level Kansas City Center
05:33PM 39.5861 -94.3537 45° Northeast  Level FlightAware Approximate
05:33PM 39.5214 -94.4547 46° Northeast 294 338 12,100  Level Kansas City Center
05:34PM 39.6498 -94.2717 45° Northeast  Level FlightAware Approximate
05:34PM 39.5917 -94.3594 46° Northeast 327 376 15,500  Level Kansas City Center
05:35PM 39.6564 -94.2728 46° Northeast 349 402 18,300 2,820 Climbing Kansas City Center
05:36PM 39.7347 -94.1642 47° Northeast 369 425 21,400 2,700 Climbing Kansas City Center
05:37PM 39.8000 -94.0628 50° Northeast 382 440 23,900 2,280 Climbing Kansas City Center
05:38PM 39.8567 -93.9467 58° Northeast 394 453 26,100 2,160 Climbing Kansas City Center
05:39PM 39.8956 -93.8133 69° East 397 457 28,400 1,380 Climbing Kansas City Center
05:40PM 39.9339 -93.6792 70° East 397 457 29,000 240 Climbing Kansas City Center
05:41PM 39.9700 -93.5444 71° East 397 457 29,000  Level Kansas City Center
05:42PM 40.0172 -93.3856 69° East 395 455 29,000  Level Kansas City Center
05:43PM 40.0550 -93.2517 70° East 397 457 29,000  Level Kansas City Center
05:44PM 40.0919 -93.1158 70° East 399 459 29,000  Level Kansas City Center
05:45PM 40.1317 -92.9758 70° East 405 466 29,000  Level Kansas City Center
05:46PM 40.1678 -92.8433 70° East 404 465 29,000  Level Kansas City Center
05:47PM 40.2100 -92.6892 70° East 404 465 29,000  Level Kansas City Center
05:48PM 40.2442 -92.5569 71° East 402 463 29,000  Level Kansas City Center
05:49PM 40.2894 -92.4047 69° East 402 463 29,000  Level Kansas City Center
05:50PM 40.3217 -92.2786 71° East 407 468 29,000  Level Kansas City Center
05:51PM 40.3583 -92.1414 71° East 404 465 29,000  Level Kansas City Center
05:52PM 40.4019 -91.9764 71° East 403 464 29,000  Level Kansas City Center
05:53PM 40.4394 -91.8372 70° East 406 467 29,000  Level Kansas City Center
05:54PM 40.4758 -91.6964 71° East 408 470 29,000  Level Kansas City Center
05:55PM 40.5131 -91.5558 71° East 410 472 29,000  Level Kansas City Center
05:56PM 40.5497 -91.4164 71° East 407 468 29,000  Level Kansas City Center
05:57PM 40.5936 -91.2886 66° East 410 472 29,000  Level Chicago Center
05:58PM 40.6411 -91.1494 66° East 415 478 29,000  Level Chicago Center
05:59PM 40.6883 -91.0114 66° East 415 478 29,000  Level Chicago Center
06:00PM 40.7347 -90.8711 66° East 417 480 29,000  Level Chicago Center
06:01PM 40.7828 -90.7328 65° Northeast 416 479 29,000  Level Chicago Center
06:02PM 40.8300 -90.5914 66° East 418 481 29,000  Level Chicago Center
06:03PM 40.8858 -90.4253 66° East 414 476 29,000 -240 Level Chicago Center
06:04PM 40.9331 -90.2833 66° East 419 482 28,600 -840 Descending Chicago Center
06:05PM 40.9819 -90.1353 66° East 426 490 27,300 -1,320 Descending Chicago Center
06:06PM 41.0311 -89.9850 67° East 446 513 25,900 -1,380 Descending Chicago Center
06:07PM 41.0817 -89.8317 66° East 451 519 24,500 -960 Descending Chicago Center
06:08PM 41.1289 -89.6850 67° East 433 498 24,000 -360 Descending Chicago Center
06:09PM 41.1792 -89.5394 65° Northeast 431 496 23,800 -1,440 Descending Chicago Center
06:10PM 41.2367 -89.4000 61° Northeast 430 495 21,100 -2,700 Descending Chicago Center
06:11PM 41.2917 -89.2650 61° Northeast 415 478 18,300 -2,760 Descending Chicago Center
06:12PM 41.3483 -89.1169 63° Northeast 391 450 15,500 -2,580 Descending Chicago Center
06:13PM 41.3972 -88.9939 62° Northeast 382 440 13,100 -2,220 Descending Chicago Center
06:15PM 41.4450 -88.8761 62° Northeast 366 421 11,000 -1,020 Descending Chicago Center
06:16PM 41.4889 -88.7647 62° Northeast 345 397 11,000  Level Chicago Center
06:17PM 41.5403 -88.6350 62° Northeast 333 383 11,000 -120 Level Chicago Center
06:18PM 41.5811 -88.5322 62° Northeast 313 360 10,800 -840 Descending Chicago Center
06:19PM 41.6072 -88.4417 69° East 267 307 9,300 -1,500 Descending Chicago Center
06:20PM 41.6264 -88.3461 75° East 264 304 7,700 -1,200 Descending Chicago Center
06:21PM 41.6508 -88.2608 69° East 247 284 6,900 -360 Descending Chicago Center
06:22PM 41.6956 -88.1994 46° Northeast 233 268 7,000 -540 Climbing Chicago Center
06:23PM 41.7456 -88.1453 39° Northeast 231 266 5,900 -1,080 Descending Chicago Center
06:24PM 41.7908 -88.0914 42° Northeast 222 255 4,800 -1,200 Descending Chicago Center
06:25PM 41.8442 -88.0286 41° Northeast 217 250 3,500 -1,320 Descending Chicago Center